Time;durP1;ratioP1;P1;durP2;ratioP2;P2;SDS_P1;SDS_P2;PMS_P1;PMS_P2;Temp;Humidity;BMP_temperature;BMP_pressure;BME280_temperature;BME280_humidity;BME280_pressure;Samples;Min_cycle;Max_cycle;Signal;HPM_P1;HPM_P2
2023/09/20 00:01:06;;;;;;;3.15;2.47;;;23.70;99.90;;;;;;6219980;28;87999;-71
2023/09/20 00:04:09;;;;;;;3.70;2.42;;;23.70;99.90;;;;;;6231964;28;88346;-71
2023/09/20 00:07:11;;;;;;;2.83;2.42;;;23.70;99.90;;;;;;6231802;28;89157;-71
2023/09/20 00:10:14;;;;;;;3.28;2.40;;;23.70;99.90;;;;;;6231706;28;88063;-71
2023/09/20 00:13:16;;;;;;;4.22;2.72;;;23.60;99.90;;;;;;6231016;28;90117;-71
2023/09/20 00:16:19;;;;;;;3.58;2.50;;;23.70;99.90;;;;;;6227071;28;89006;-71
2023/09/20 00:19:21;;;;;;;2.55;2.33;;;23.60;99.90;;;;;;6228596;28;89394;-72
2023/09/20 00:22:23;;;;;;;2.95;2.20;;;23.70;99.90;;;;;;6228940;28;89158;-72
2023/09/20 00:25:27;;;;;;;5.15;2.70;;;23.70;99.90;;;;;;6221516;28;89125;-71
2023/09/20 00:28:29;;;;;;;3.30;2.28;;;23.70;99.90;;;;;;6230739;28;88941;-71
2023/09/20 00:31:33;;;;;;;2.33;2.00;;;23.70;99.90;;;;;;6216535;28;89131;-71
2023/09/20 00:34:35;;;;;;;3.38;2.42;;;23.70;99.90;;;;;;6225999;28;88355;-71
2023/09/20 00:37:38;;;;;;;3.13;2.33;;;23.70;99.90;;;;;;6231337;28;89102;-71
2023/09/20 00:40:40;;;;;;;5.50;3.00;;;23.70;99.90;;;;;;6224003;28;89068;-71
2023/09/20 00:43:42;;;;;;;3.58;2.53;;;23.70;99.90;;;;;;6231648;28;90340;-71
2023/09/20 00:46:46;;;;;;;3.20;2.33;;;23.70;99.90;;;;;;6230969;28;89063;-71
2023/09/20 00:49:49;;;;;;;2.70;2.13;;;23.60;99.90;;;;;;6225867;28;88812;-71
2023/09/20 00:52:54;;;;;;;3.45;2.30;;;23.70;99.90;;;;;;6230624;28;89150;-70
2023/09/20 00:55:58;;;;;;;3.78;2.40;;;23.70;99.90;;;;;;6229748;28;89019;-71
2023/09/20 00:59:06;;;;;;;3.25;2.38;;;23.60;99.90;;;;;;6223440;28;89092;-71
2023/09/20 01:02:10;;;;;;;2.25;1.90;;;23.60;99.90;;;;;;6224861;28;88967;-70
2023/09/20 01:05:13;;;;;;;2.53;2.10;;;23.60;99.90;;;;;;6219263;28;88328;-71
2023/09/20 01:08:17;;;;;;;2.80;2.08;;;23.60;99.90;;;;;;6227995;28;88517;-71
2023/09/20 01:11:20;;;;;;;2.63;1.90;;;23.60;99.90;;;;;;6229318;28;89365;-71
2023/09/20 01:14:22;;;;;;;3.40;2.10;;;23.60;99.90;;;;;;6215774;28;90368;-71
2023/09/20 01:17:25;;;;;;;5.68;2.92;;;23.60;99.90;;;;;;6228374;28;89428;-71
2023/09/20 01:20:28;;;;;;;2.80;2.05;;;23.60;99.90;;;;;;6230742;28;89466;-72
2023/09/20 01:23:32;;;;;;;2.88;2.10;;;23.60;99.90;;;;;;6224619;28;89077;-71
2023/09/20 01:26:35;;;;;;;2.53;2.20;;;23.60;99.90;;;;;;6230894;28;89430;-71
2023/09/20 01:29:38;;;;;;;2.50;1.83;;;23.60;99.90;;;;;;6220426;28;89158;-71
2023/09/20 01:32:40;;;;;;;3.35;1.90;;;23.60;99.90;;;;;;6226628;28;89135;-71
2023/09/20 01:35:45;;;;;;;3.15;1.88;;;23.60;99.90;;;;;;6230435;28;88332;-71
2023/09/20 01:38:48;;;;;;;2.42;2.10;;;23.60;99.90;;;;;;6230028;28;89114;-71
2023/09/20 01:41:50;;;;;;;2.33;2.00;;;23.60;99.90;;;;;;6223362;28;89377;-71
2023/09/20 01:44:52;;;;;;;3.38;2.20;;;23.60;99.90;;;;;;6222205;28;90329;-71
2023/09/20 01:47:56;;;;;;;3.50;2.22;;;23.60;99.90;;;;;;6220357;28;87893;-71
2023/09/20 01:50:57;;;;;;;2.75;1.85;;;23.60;99.90;;;;;;6224109;28;89048;-71
2023/09/20 01:54:01;;;;;;;2.58;1.73;;;23.60;99.90;;;;;;6228674;28;89066;-71
2023/09/20 01:57:03;;;;;;;2.60;2.00;;;23.60;99.90;;;;;;6229726;28;89110;-71
2023/09/20 02:00:21;;;;;;;3.92;2.17;;;23.60;99.90;;;;;;6226598;28;89508;-71
2023/09/20 02:03:27;;;;;;;3.22;1.80;;;23.60;99.90;;;;;;6221634;28;89148;-71
2023/09/20 02:06:29;;;;;;;2.92;1.73;;;23.60;99.90;;;;;;6217586;28;88591;-72
2023/09/20 02:09:34;;;;;;;2.80;2.10;;;23.60;99.90;;;;;;6226877;28;89054;-72
2023/09/20 02:12:36;;;;;;;1.75;1.63;;;23.50;99.90;;;;;;6218068;28;89306;-72
2023/09/20 02:16:34;;;;;;;2.95;1.75;;;23.60;99.90;;;;;;6226999;28;90177;-72
2023/09/20 02:19:36;;;;;;;2.83;2.00;;;23.60;99.90;;;;;;6223627;28;89164;-72
2023/09/20 02:22:39;;;;;;;2.88;2.00;;;23.60;99.90;;;;;;6226649;28;88976;-72
2023/09/20 02:25:43;;;;;;;2.40;1.80;;;23.60;99.90;;;;;;6221778;28;89078;-71
2023/09/20 02:28:45;;;;;;;3.17;2.03;;;23.60;99.90;;;;;;6230894;28;89119;-71
2023/09/20 02:31:48;;;;;;;3.78;2.22;;;23.60;99.90;;;;;;6225201;28;89335;-71
2023/09/20 02:34:51;;;;;;;2.28;1.80;;;23.60;99.90;;;;;;6232596;28;88222;-72
2023/09/20 02:37:53;;;;;;;3.08;2.10;;;23.60;99.90;;;;;;6231482;28;88382;-72
2023/09/20 02:40:58;;;;;;;3.17;2.20;;;23.60;99.90;;;;;;6229450;28;88980;-72
2023/09/20 02:44:00;;;;;;;4.43;2.58;;;23.60;99.90;;;;;;6231854;28;89386;-72
2023/09/20 02:47:03;;;;;;;4.15;2.60;;;23.60;99.90;;;;;;6231424;28;90036;-72
2023/09/20 02:50:06;;;;;;;5.10;3.53;;;23.60;99.90;;;;;;6226239;28;89021;-72
2023/09/20 02:53:09;;;;;;;7.45;4.45;;;23.60;99.90;;;;;;6230490;28;89239;-72
2023/09/20 02:56:13;;;;;;;7.63;4.80;;;23.50;99.90;;;;;;6228887;28;87957;-72
2023/09/20 02:59:16;;;;;;;9.13;5.45;;;23.60;99.90;;;;;;6220636;28;88388;-72
2023/09/20 03:02:19;;;;;;;12.20;6.43;;;23.60;99.90;;;;;;6230241;28;90092;-72
2023/09/20 03:05:25;;;;;;;14.10;9.45;;;23.60;99.90;;;;;;6219420;28;89001;-72
2023/09/20 03:08:27;;;;;;;52.33;31.48;;;23.60;99.90;;;;;;6227389;28;88622;-72
2023/09/20 03:11:30;;;;;;;62.28;36.55;;;23.60;99.90;;;;;;6227164;28;89502;-71
2023/09/20 03:14:39;;;;;;;103.28;58.50;;;23.50;99.90;;;;;;6224786;28;89425;-71
2023/09/20 03:17:42;;;;;;;82.38;47.72;;;23.50;99.90;;;;;;6231346;28;90089;-71
2023/09/20 03:20:48;;;;;;;98.20;56.30;;;23.60;99.90;;;;;;6224062;28;89070;-73
2023/09/20 03:23:50;;;;;;;142.27;82.90;;;23.50;99.90;;;;;;6231191;28;89824;-71
2023/09/20 03:26:54;;;;;;;159.75;94.22;;;23.50;99.90;;;;;;6231056;28;89113;-71
2023/09/20 03:29:56;;;;;;;155.90;90.72;;;23.50;99.90;;;;;;6231272;28;89380;-71
2023/09/20 03:32:59;;;;;;;154.82;88.47;;;23.50;99.90;;;;;;6231789;28;89101;-71
2023/09/20 03:36:09;;;;;;;151.38;90.05;;;23.50;99.90;;;;;;6223189;28;88861;-71
2023/09/20 03:39:14;;;;;;;154.20;90.82;;;23.50;99.90;;;;;;6230428;28;88657;-70
2023/09/20 03:42:17;;;;;;;144.10;82.55;;;23.50;99.90;;;;;;6230670;28;89101;-71
2023/09/20 03:45:19;;;;;;;141.85;81.22;;;23.50;99.90;;;;;;6222784;28;89039;-70
2023/09/20 03:48:21;;;;;;;140.77;81.15;;;23.50;99.90;;;;;;6229115;28;91099;-70
2023/09/20 03:51:23;;;;;;;123.90;71.53;;;23.50;99.90;;;;;;6229967;28;89461;-70
2023/09/20 03:54:25;;;;;;;128.07;73.22;;;23.50;99.90;;;;;;6223565;28;89068;-71
2023/09/20 03:57:29;;;;;;;130.65;73.60;;;23.50;99.90;;;;;;6230634;28;89554;-71
2023/09/20 04:00:31;;;;;;;131.90;78.55;;;23.50;99.90;;;;;;6231253;28;89016;-70
2023/09/20 11:24:27;;;;;;;35.03;22.65;;;23.50;99.90;;;;;;6202846;28;88748;-70
2023/09/20 11:27:30;;;;;;;35.35;21.42;;;23.50;99.90;;;;;;6230072;28;89032;-72
2023/09/20 11:30:32;;;;;;;31.98;20.42;;;23.50;99.90;;;;;;6230844;28;89530;-71
2023/09/20 11:33:34;;;;;;;28.92;19.65;;;23.60;99.90;;;;;;6233032;28;88266;-72
2023/09/20 11:36:38;;;;;;;32.15;20.65;;;23.50;99.90;;;;;;6223598;28;89265;-72
2023/09/20 11:39:43;;;;;;;32.17;19.92;;;23.50;99.90;;;;;;6231422;28;89110;-71
2023/09/20 11:42:46;;;;;;;32.17;19.33;;;23.50;99.90;;;;;;6230417;28;89965;-72
2023/09/20 11:45:50;;;;;;;31.35;18.90;;;23.60;99.90;;;;;;6223225;28;89100;-71
2023/09/20 11:48:52;;;;;;;30.92;19.20;;;23.60;99.90;;;;;;6229710;28;89086;-72
2023/09/20 11:51:54;;;;;;;28.70;18.27;;;23.50;99.90;;;;;;6230483;28;89251;-71
2023/09/20 11:55:03;;;;;;;26.70;17.85;;;23.50;99.90;;;;;;6223233;28;87959;-71
2023/09/20 11:58:05;;;;;;;26.77;17.60;;;23.50;99.90;;;;;;6229263;28;89134;-72
2023/09/20 12:01:08;;;;;;;28.17;17.67;;;23.50;99.90;;;;;;6229175;28;89047;-71
2023/09/20 12:04:11;;;;;;;23.92;16.45;;;23.60;99.90;;;;;;6229219;28;88001;-72
2023/09/20 12:07:13;;;;;;;25.88;17.63;;;23.50;99.90;;;;;;6226897;28;89012;-71
2023/09/20 12:10:16;;;;;;;23.17;15.57;;;23.50;99.90;;;;;;6230228;28;89458;-71
2023/09/20 12:13:18;;;;;;;22.02;15.52;;;23.60;99.90;;;;;;6229699;28;89984;-71
2023/09/20 12:16:23;;;;;;;23.17;15.90;;;23.50;99.90;;;;;;6227033;28;89276;-71
2023/09/20 12:19:25;;;;;;;23.73;15.55;;;23.50;99.90;;;;;;6223294;28;88352;-72
2023/09/20 12:22:28;;;;;;;23.45;14.30;;;23.60;99.90;;;;;;6230793;28;89117;-72
2023/09/20 12:25:32;;;;;;;20.05;14.07;;;23.50;99.90;;;;;;6219543;28;90506;-71
2023/09/20 12:28:34;;;;;;;21.92;13.38;;;23.50;99.90;;;;;;6225166;28;90052;-71
2023/09/20 12:31:36;;;;;;;20.20;13.02;;;23.60;99.90;;;;;;6229924;28;89011;-71
2023/09/20 12:34:38;;;;;;;21.63;13.77;;;23.60;99.90;;;;;;6222933;28;88059;-71
2023/09/20 12:37:40;;;;;;;19.13;12.93;;;23.60;99.90;;;;;;6223474;28;89028;-71
2023/09/20 12:40:44;;;;;;;18.42;12.63;;;23.60;99.90;;;;;;6223859;28;89036;-71
2023/09/20 12:43:46;;;;;;;17.42;12.68;;;23.60;99.90;;;;;;6222450;28;89468;-71
2023/09/20 12:46:48;;;;;;;17.05;12.30;;;23.60;99.90;;;;;;6229287;28;89341;-71
2023/09/20 12:49:50;;;;;;;16.85;11.68;;;23.50;99.90;;;;;;6228858;28;89168;-70
2023/09/20 12:52:52;;;;;;;15.65;11.40;;;23.60;99.90;;;;;;6229903;28;89071;-70
2023/09/20 12:55:56;;;;;;;15.45;10.68;;;23.60;99.90;;;;;;6230270;28;88921;-70
2023/09/20 12:58:58;;;;;;;16.08;11.50;;;23.60;99.90;;;;;;6228930;28;89016;-70
2023/09/20 13:02:01;;;;;;;15.23;11.02;;;23.60;99.90;;;;;;6229710;28;89508;-70
2023/09/20 13:05:03;;;;;;;14.88;10.57;;;23.60;99.90;;;;;;6229449;28;88399;-70
2023/09/20 13:08:06;;;;;;;15.02;10.43;;;23.50;99.90;;;;;;6229174;28;88955;-70
2023/09/20 13:11:10;;;;;;;16.38;11.30;;;23.60;99.90;;;;;;6227159;28;89136;-71
2023/09/20 13:14:14;;;;;;;15.60;10.85;;;23.60;99.90;;;;;;6229957;28;90146;-70
2023/09/20 13:17:17;;;;;;;13.02;9.60;;;23.60;99.90;;;;;;6226756;28;90085;-70
2023/09/20 13:20:19;;;;;;;12.95;9.43;;;23.60;99.90;;;;;;6226553;28;89001;-70
2023/09/20 13:23:22;;;;;;;14.50;10.10;;;23.60;99.90;;;;;;6230751;28;89301;-70
2023/09/20 13:26:26;;;;;;;15.23;9.95;;;23.60;99.90;;;;;;6228352;28;89136;-69
2023/09/20 13:29:28;;;;;;;14.38;9.45;;;23.60;99.90;;;;;;6229668;28;89061;-69
2023/09/20 13:32:30;;;;;;;12.50;9.10;;;23.60;99.90;;;;;;6229675;28;88905;-71
2023/09/20 13:35:34;;;;;;;13.05;8.80;;;23.60;99.90;;;;;;6224047;28;88512;-71
2023/09/20 13:38:36;;;;;;;12.77;9.15;;;23.60;99.90;;;;;;6229487;28;89256;-71
2023/09/20 13:41:40;;;;;;;12.40;8.55;;;23.60;99.90;;;;;;6230222;28;88963;-69
2023/09/20 13:44:42;;;;;;;10.18;7.85;;;23.60;99.90;;;;;;6229638;28;89934;-68
2023/09/20 13:47:44;;;;;;;11.40;7.80;;;23.60;99.90;;;;;;6226506;28;89187;-69
2023/09/20 13:50:46;;;;;;;11.95;8.43;;;23.60;99.90;;;;;;6229902;28;89010;-72
2023/09/20 13:53:50;;;;;;;9.75;7.78;;;23.60;99.90;;;;;;6230067;28;89667;-71
2023/09/20 13:56:53;;;;;;;11.18;8.13;;;23.60;99.90;;;;;;6227989;28;89063;-72
2023/09/20 13:59:57;;;;;;;10.82;7.72;;;23.60;99.90;;;;;;6229442;28;87968;-72
2023/09/20 14:03:01;;;;;;;11.48;7.72;;;23.60;99.90;;;;;;6226924;28;89128;-71
2023/09/20 14:06:04;;;;;;;9.10;7.43;;;23.60;99.90;;;;;;6229915;28;88354;-69
2023/09/20 14:09:08;;;;;;;10.07;7.45;;;23.60;99.90;;;;;;6229573;28;89053;-69
2023/09/20 14:12:12;;;;;;;10.05;7.10;;;23.60;99.90;;;;;;6228694;28;89085;-70
2023/09/20 14:15:15;;;;;;;9.07;6.90;;;23.60;99.90;;;;;;6229973;28;90094;-69
2023/09/20 14:18:17;;;;;;;9.23;6.63;;;23.60;99.90;;;;;;6229530;28;89114;-69
2023/09/20 14:21:21;;;;;;;8.88;7.30;;;23.60;99.90;;;;;;6229220;28;89078;-69
2023/09/20 14:24:25;;;;;;;8.63;6.70;;;23.60;99.90;;;;;;6233660;28;88745;-69
2023/09/20 14:27:28;;;;;;;8.63;6.50;;;23.60;99.90;;;;;;6226655;28;88944;-69
2023/09/20 14:30:33;;;;;;;8.90;6.60;;;23.60;99.90;;;;;;6214394;28;89059;-69
2023/09/20 14:33:35;;;;;;;8.35;6.45;;;23.60;99.90;;;;;;6232797;28;89044;-69
2023/09/20 14:36:41;;;;;;;10.05;6.88;;;23.60;99.90;;;;;;6233961;28;87267;-69
2023/09/20 14:39:44;;;;;;;10.45;6.90;;;23.60;99.90;;;;;;6232087;28;87849;-70
2023/09/20 14:42:49;;;;;;;7.53;6.10;;;23.60;99.90;;;;;;6222119;28;87913;-70
2023/09/20 14:45:51;;;;;;;8.20;6.13;;;23.60;99.90;;;;;;6220919;28;90274;-71
2023/09/20 14:48:53;;;;;;;7.30;5.85;;;23.60;99.90;;;;;;6224832;28;88998;-72
2023/09/20 14:51:55;;;;;;;8.73;6.53;;;23.60;99.90;;;;;;6225322;28;89578;-72
2023/09/20 14:54:57;;;;;;;7.18;5.90;;;23.60;99.90;;;;;;6233405;28;89328;-72
2023/09/20 14:58:01;;;;;;;7.38;6.25;;;23.60;99.90;;;;;;6232765;28;87983;-72
2023/09/20 15:01:12;;;;;;;7.72;5.65;;;23.60;99.90;;;;;;6233105;28;89290;-71
2023/09/20 15:04:15;;;;;;;7.22;5.70;;;23.60;99.90;;;;;;6229510;28;89018;-72
2023/09/20 15:07:17;;;;;;;8.40;5.95;;;23.60;99.90;;;;;;6233705;28;88459;-72
2023/09/20 15:10:20;;;;;;;6.40;5.75;;;23.60;99.90;;;;;;6232715;28;89008;-73
2023/09/20 15:13:23;;;;;;;6.22;5.63;;;23.60;99.90;;;;;;6233159;28;89060;-72
2023/09/20 15:16:25;;;;;;;5.93;5.32;;;23.60;99.90;;;;;;6232728;28;90192;-72
2023/09/20 15:19:28;;;;;;;5.90;5.30;;;23.60;99.90;;;;;;6233126;28;89093;-72
2023/09/20 15:22:31;;;;;;;5.72;4.93;;;23.60;99.90;;;;;;6231055;28;89350;-69
2023/09/20 15:25:32;;;;;;;5.80;5.20;;;23.60;99.90;;;;;;6230434;28;89056;-68
2023/09/20 15:28:37;;;;;;;6.70;5.40;;;23.60;99.90;;;;;;6232613;28;89092;-71
2023/09/20 15:31:39;;;;;;;6.38;5.07;;;23.60;99.90;;;;;;6232809;28;89135;-69
2023/09/20 15:34:42;;;;;;;7.70;5.25;;;23.60;99.90;;;;;;6231908;28;89212;-71
2023/09/20 15:37:45;;;;;;;5.18;4.68;;;23.60;99.90;;;;;;6233942;28;88179;-71
2023/09/20 15:40:48;;;;;;;5.72;4.93;;;23.60;99.90;;;;;;6229304;28;89135;-71
2023/09/20 15:43:52;;;;;;;6.38;5.20;;;23.60;99.90;;;;;;6232306;28;87911;-71
2023/09/20 15:46:55;;;;;;;5.72;4.88;;;23.60;99.90;;;;;;6232623;28;90549;-71
2023/09/20 15:49:58;;;;;;;5.78;5.20;;;23.60;99.90;;;;;;6232190;28;89460;-71
2023/09/20 15:53:00;;;;;;;5.22;4.72;;;23.60;99.90;;;;;;6231886;28;89213;-71
2023/09/20 15:56:03;;;;;;;5.68;4.85;;;23.60;99.90;;;;;;6232488;28;88666;-71
2023/09/20 15:59:06;;;;;;;5.30;4.72;;;23.60;99.90;;;;;;6226411;28;89055;-71
2023/09/20 16:02:10;;;;;;;5.20;4.70;;;23.60;99.90;;;;;;6232204;28;87901;-71
2023/09/20 16:05:13;;;;;;;5.10;4.28;;;23.60;99.90;;;;;;6232208;28;87018;-72
2023/09/20 16:08:16;;;;;;;5.03;4.45;;;23.60;99.90;;;;;;6222047;28;87262;-72
2023/09/20 16:11:18;;;;;;;4.57;4.10;;;23.60;99.90;;;;;;6222358;28;89099;-71
2023/09/20 16:14:23;;;;;;;5.00;4.50;;;23.60;99.90;;;;;;6232785;28;87961;-72
2023/09/20 16:17:25;;;;;;;4.75;4.32;;;23.60;99.90;;;;;;6231485;28;88924;-71
2023/09/20 16:20:29;;;;;;;5.55;4.55;;;23.60;99.90;;;;;;6228611;28;89569;-72
2023/09/20 16:23:32;;;;;;;6.35;4.80;;;23.60;99.90;;;;;;6230399;28;87991;-71
2023/09/20 16:26:37;;;;;;;4.63;4.13;;;23.60;99.90;;;;;;6221027;28;89146;-72
2023/09/20 16:29:42;;;;;;;5.38;4.18;;;23.60;99.90;;;;;;6219779;28;88022;-71
2023/09/20 16:32:45;;;;;;;4.60;4.10;;;23.60;99.90;;;;;;6231764;28;89012;-71
2023/09/20 16:35:49;;;;;;;4.63;4.13;;;23.60;99.90;;;;;;6231678;28;88015;-71
2023/09/20 16:38:52;;;;;;;4.25;3.85;;;23.60;99.90;;;;;;6232336;28;86349;-70
2023/09/20 16:41:57;;;;;;;3.95;3.55;;;23.60;99.90;;;;;;6230666;28;87014;-70
2023/09/20 16:45:03;;;;;;;4.57;4.05;;;23.60;99.90;;;;;;6226877;28;88416;-70
2023/09/20 16:48:07;;;;;;;4.65;4.05;;;23.60;99.90;;;;;;6217360;28;88798;-71
2023/09/20 16:51:11;;;;;;;4.47;3.70;;;23.60;99.90;;;;;;6230590;28;87983;-70
2023/09/20 16:54:15;;;;;;;4.50;3.67;;;23.60;99.90;;;;;;6228640;28;88016;-71
2023/09/20 16:57:22;;;;;;;5.22;3.50;;;23.60;99.90;;;;;;6231531;28;88024;-71
2023/09/20 17:00:30;;;;;;;3.80;3.40;;;23.60;99.90;;;;;;6218940;28;88013;-73
2023/09/20 17:03:33;;;;;;;4.22;3.50;;;23.60;99.90;;;;;;6229437;28;88013;-72
2023/09/20 17:06:38;;;;;;;4.10;3.70;;;23.60;99.90;;;;;;6231237;28;88099;-70
2023/09/20 17:09:41;;;;;;;3.90;3.35;;;23.60;99.90;;;;;;6231328;28;88868;-72
2023/09/20 17:12:44;;;;;;;3.67;3.35;;;23.60;99.90;;;;;;6229551;28;87979;-72
2023/09/20 17:15:52;;;;;;;3.83;3.40;;;23.60;99.90;;;;;;6225970;28;88023;-73
2023/09/20 17:18:55;;;;;;;3.72;3.25;;;23.60;99.90;;;;;;6229581;28;90748;-73
2023/09/20 17:22:02;;;;;;;4.43;3.35;;;23.70;99.90;;;;;;6220619;28;87024;-73
2023/09/20 17:25:07;;;;;;;5.30;3.40;;;23.60;99.90;;;;;;6223489;28;87066;-72
2023/09/20 17:28:11;;;;;;;4.25;3.33;;;23.60;99.90;;;;;;6230669;28;88002;-73
2023/09/20 17:31:17;;;;;;;3.55;3.05;;;23.60;99.90;;;;;;6229783;28;89299;-73
2023/09/20 17:34:21;;;;;;;4.38;3.33;;;23.60;99.90;;;;;;6230394;28;87993;-70
2023/09/20 17:37:26;;;;;;;3.80;3.35;;;23.60;99.90;;;;;;6228169;28;87971;-70
2023/09/20 17:40:30;;;;;;;5.18;3.13;;;23.60;99.90;;;;;;6230568;28;87775;-70
2023/09/20 17:43:35;;;;;;;6.20;3.45;;;23.60;99.90;;;;;;6230191;28;87841;-70
2023/09/20 17:46:41;;;;;;;7.20;3.00;;;23.60;99.90;;;;;;6223339;28;87988;-71
2023/09/20 17:49:45;;;;;;;4.65;3.20;;;23.60;99.90;;;;;;6228969;28;89001;-70
2023/09/20 17:52:50;;;;;;;5.15;3.50;;;23.60;99.90;;;;;;6227043;28;88042;-70
2023/09/20 17:55:54;;;;;;;5.78;3.38;;;23.60;99.90;;;;;;6225311;28;88204;-73
2023/09/20 17:58:58;;;;;;;4.65;3.40;;;23.60;99.90;;;;;;6211692;28;88134;-73
2023/09/20 18:02:05;;;;;;;7.78;3.88;;;23.70;99.90;;;;;;6232817;28;89165;-72
2023/09/20 18:05:10;;;;;;;9.05;3.95;;;23.60;99.90;;;;;;6233523;28;88790;-74
2023/09/20 18:08:15;;;;;;;7.40;4.13;;;23.70;99.90;;;;;;6234600;28;89005;-73
2023/09/20 18:11:22;;;;;;;11.55;4.40;;;23.60;99.90;;;;;;6231475;28;87200;-73
2023/09/20 18:14:27;;;;;;;8.45;4.30;;;23.60;99.90;;;;;;6234232;28;88096;-70
2023/09/20 18:17:34;;;;;;;9.63;4.40;;;23.60;99.90;;;;;;6231976;28;88154;-70
2023/09/20 18:20:41;;;;;;;9.27;4.10;;;23.60;99.90;;;;;;6230690;28;89327;-74
2023/09/20 18:23:45;;;;;;;8.50;4.28;;;23.70;99.90;;;;;;6225531;28;87316;-72
2023/09/20 18:26:49;;;;;;;7.20;4.10;;;23.60;99.90;;;;;;6219790;28;87954;-73
2023/09/20 18:29:55;;;;;;;9.18;4.35;;;23.60;99.90;;;;;;6223027;28;88112;-73
2023/09/20 18:33:01;;;;;;;7.78;4.15;;;23.60;99.90;;;;;;6234982;28;88011;-73
2023/09/20 18:36:16;;;;;;;8.38;4.25;;;23.60;99.90;;;;;;6223190;28;87026;-70
2023/09/20 18:39:20;;;;;;;7.50;3.80;;;23.60;99.90;;;;;;6221884;28;87935;-70
2023/09/20 18:42:24;;;;;;;6.57;3.63;;;23.60;99.90;;;;;;6233415;28;87802;-70
2023/09/20 18:45:28;;;;;;;6.10;3.67;;;23.60;99.90;;;;;;6230282;28;88008;-69
2023/09/20 18:48:33;;;;;;;5.90;3.22;;;23.60;99.90;;;;;;6231777;28;88316;-70
2023/09/20 18:51:37;;;;;;;5.25;3.47;;;23.60;99.90;;;;;;6224971;28;88661;-70
2023/09/20 18:54:41;;;;;;;6.07;3.17;;;23.60;99.90;;;;;;6229604;28;88041;-70
2023/09/20 18:57:51;;;;;;;6.57;3.50;;;23.60;99.90;;;;;;6220564;28;88220;-70
2023/09/20 19:00:58;;;;;;;6.70;3.47;;;23.60;99.90;;;;;;6229919;28;88052;-70
2023/09/20 19:04:04;;;;;;;6.20;3.88;;;23.60;99.90;;;;;;6233405;28;88089;-70
2023/09/20 19:07:08;;;;;;;5.22;2.95;;;23.60;99.90;;;;;;6231254;28;88348;-70
2023/09/20 19:10:12;;;;;;;5.28;3.25;;;23.60;99.90;;;;;;6220545;28;88336;-70
2023/09/20 19:13:23;;;;;;;4.22;2.92;;;23.60;99.90;;;;;;6233210;28;87285;-70
2023/09/20 19:16:28;;;;;;;5.75;3.13;;;23.60;99.90;;;;;;6231956;28;88362;-69
2023/09/20 19:19:42;;;;;;;3.85;2.78;;;23.60;99.90;;;;;;6230207;28;88239;-69
2023/09/20 19:22:47;;;;;;;4.82;3.00;;;23.60;99.90;;;;;;6231867;28;88970;-70
2023/09/20 19:25:56;;;;;;;4.18;2.70;;;23.60;99.90;;;;;;6232042;28;87133;-69
2023/09/20 19:29:03;;;;;;;5.25;3.05;;;23.60;99.90;;;;;;6231839;28;88095;-70
2023/09/20 19:32:08;;;;;;;6.75;3.00;;;23.60;99.90;;;;;;6232197;28;88339;-67
2023/09/20 19:35:13;;;;;;;4.35;2.65;;;23.60;99.90;;;;;;6225296;28;87114;-68
2023/09/20 19:38:17;;;;;;;4.15;2.70;;;23.60;99.90;;;;;;6231002;28;88578;-67
2023/09/20 19:41:24;;;;;;;5.43;2.90;;;23.60;99.90;;;;;;6228121;28;88415;-68
2023/09/20 19:44:29;;;;;;;4.90;2.90;;;23.60;99.90;;;;;;6228435;28;88012;-68
2023/09/20 19:47:34;;;;;;;7.40;3.00;;;23.60;99.90;;;;;;6185703;28;88460;-68
2023/09/20 19:50:39;;;;;;;3.88;2.97;;;23.60;99.90;;;;;;6228144;28;87987;-68
2023/09/20 19:53:43;;;;;;;5.75;2.80;;;23.60;99.90;;;;;;6220570;28;88994;-68
2023/09/20 19:56:48;;;;;;;3.17;2.72;;;23.60;99.90;;;;;;6221276;28;88748;-68
2023/09/20 19:59:54;;;;;;;4.50;2.50;;;23.60;99.90;;;;;;6229427;28;87258;-69
2023/09/20 20:03:00;;;;;;;3.33;2.65;;;23.60;99.90;;;;;;6229379;28;88113;-68
2023/09/20 20:06:05;;;;;;;5.10;2.60;;;23.60;99.90;;;;;;6229272;28;87930;-68
2023/09/20 20:09:09;;;;;;;3.78;2.70;;;23.60;99.90;;;;;;6228647;28;88086;-69
2023/09/20 20:12:13;;;;;;;5.32;3.22;;;23.60;99.90;;;;;;6227060;28;88225;-71
2023/09/20 20:15:20;;;;;;;4.50;2.70;;;23.60;99.90;;;;;;6221922;28;87331;-71
2023/09/20 20:18:24;;;;;;;4.35;2.80;;;23.60;99.90;;;;;;6224653;28;88012;-72
2023/09/20 20:21:29;;;;;;;3.60;2.53;;;23.60;99.90;;;;;;6232215;28;87941;-72
2023/09/20 20:24:34;;;;;;;3.13;2.40;;;23.60;99.90;;;;;;6231552;28;89209;-71
2023/09/20 20:27:38;;;;;;;3.28;2.63;;;23.60;99.90;;;;;;6231704;28;88136;-71
2023/09/20 20:30:43;;;;;;;3.53;2.30;;;23.60;99.90;;;;;;6231537;28;87958;-71
2023/09/20 20:33:46;;;;;;;5.88;3.45;;;23.60;99.90;;;;;;6227310;28;87882;-71
2023/09/20 20:36:51;;;;;;;5.00;2.63;;;23.60;99.90;;;;;;6231560;28;88110;-71
2023/09/20 20:39:55;;;;;;;4.85;2.95;;;23.60;99.90;;;;;;6223773;28;88072;-71
2023/09/20 20:42:58;;;;;;;3.65;2.60;;;23.60;99.90;;;;;;6230869;28;88076;-70
2023/09/20 20:46:02;;;;;;;2.83;2.50;;;23.60;99.90;;;;;;6221741;28;87274;-68
2023/09/20 20:49:06;;;;;;;3.88;2.75;;;23.60;99.90;;;;;;6229711;28;87279;-71
2023/09/20 20:52:11;;;;;;;3.63;2.90;;;23.60;99.90;;;;;;6231124;28;88024;-68
2023/09/20 20:55:19;;;;;;;3.20;2.60;;;23.60;99.90;;;;;;6223986;28;88013;-68
2023/09/20 20:58:24;;;;;;;3.45;2.70;;;23.60;99.90;;;;;;6227382;28;88547;-69
2023/09/20 21:01:26;;;;;;;3.85;2.80;;;23.70;99.90;;;;;;6224625;28;88346;-68
2023/09/20 21:04:28;;;;;;;3.92;2.70;;;23.60;99.90;;;;;;6224677;28;89070;-69
2023/09/20 21:07:31;;;;;;;3.72;2.90;;;23.60;99.90;;;;;;6231141;28;91352;-69
2023/09/20 21:10:34;;;;;;;4.22;2.92;;;23.70;99.90;;;;;;6228117;28;88894;-68
2023/09/20 21:13:36;;;;;;;3.45;2.63;;;23.60;99.90;;;;;;6218899;28;89066;-71
2023/09/20 21:16:38;;;;;;;3.00;2.70;;;23.60;99.90;;;;;;6229478;28;88337;-69
2023/09/20 21:19:40;;;;;;;4.30;3.00;;;23.60;99.90;;;;;;6217984;28;89108;-69
2023/09/20 21:22:44;;;;;;;3.53;2.88;;;23.60;99.90;;;;;;6230347;28;88903;-69
2023/09/20 21:25:46;;;;;;;3.40;3.08;;;23.60;99.90;;;;;;6217539;28;90335;-69
2023/09/20 21:28:48;;;;;;;3.25;2.80;;;23.60;99.90;;;;;;6217552;28;89047;-69
2023/09/20 21:31:52;;;;;;;3.45;3.15;;;23.60;99.90;;;;;;6229396;28;89116;-69
2023/09/20 21:34:55;;;;;;;5.13;3.45;;;23.60;99.90;;;;;;6228528;28;88651;-69
2023/09/20 21:37:58;;;;;;;3.67;3.15;;;23.60;99.90;;;;;;6229701;28;89045;-69
2023/09/20 21:41:00;;;;;;;5.53;4.00;;;23.60;99.90;;;;;;6229054;28;89406;-69
2023/09/20 21:44:02;;;;;;;4.50;3.50;;;23.60;99.90;;;;;;6218108;28;89121;-70
2023/09/20 21:47:04;;;;;;;5.18;3.85;;;23.60;99.90;;;;;;6229848;28;88502;-70
2023/09/20 21:50:09;;;;;;;5.22;3.60;;;23.60;99.90;;;;;;6229499;28;89158;-69
2023/09/20 21:53:12;;;;;;;4.72;3.60;;;23.60;99.90;;;;;;6228817;28;87955;-69
2023/09/20 21:56:15;;;;;;;4.38;3.70;;;23.60;99.90;;;;;;6223137;28;90133;-69
2023/09/20 21:59:17;;;;;;;6.00;3.85;;;23.60;99.90;;;;;;6229578;28;89222;-69
2023/09/20 22:02:19;;;;;;;5.25;4.10;;;23.60;99.90;;;;;;6228392;28;89052;-69
2023/09/20 22:05:22;;;;;;;4.18;3.78;;;23.60;99.90;;;;;;6225855;28;88011;-69
2023/09/20 22:08:26;;;;;;;6.70;4.20;;;23.60;99.90;;;;;;6221193;28;89187;-69
2023/09/20 22:11:28;;;;;;;3.95;3.55;;;23.50;99.90;;;;;;6228955;28;87756;-69
2023/09/20 22:14:31;;;;;;;4.07;3.65;;;23.60;99.90;;;;;;6229256;28;89089;-69
2023/09/20 22:17:36;;;;;;;4.18;3.70;;;23.60;99.90;;;;;;6229795;28;88533;-68
2023/09/20 22:20:40;;;;;;;4.25;3.70;;;23.60;99.90;;;;;;6230808;28;89313;-69
2023/09/20 22:23:43;;;;;;;5.05;4.00;;;23.60;99.90;;;;;;6228681;28;89180;-69
2023/09/20 22:26:46;;;;;;;7.80;5.35;;;23.60;99.90;;;;;;6227814;28;89980;-69
2023/09/20 22:29:48;;;;;;;4.63;4.10;;;23.50;99.90;;;;;;6230524;28;89381;-69
2023/09/20 22:32:52;;;;;;;5.80;4.57;;;23.50;99.90;;;;;;6223045;28;87913;-69
2023/09/20 22:35:54;;;;;;;4.75;4.28;;;23.50;99.90;;;;;;6229351;28;88765;-69
2023/09/20 22:38:57;;;;;;;4.88;4.35;;;23.60;99.90;;;;;;6229749;28;89067;-69
2023/09/20 22:41:59;;;;;;;4.80;4.30;;;23.50;99.90;;;;;;6227856;28;89078;-68
2023/09/20 22:45:06;;;;;;;4.65;4.10;;;23.50;99.90;;;;;;6233987;28;88001;-69
2023/09/20 22:48:12;;;;;;;5.07;4.53;;;23.50;99.90;;;;;;6233943;28;88310;-69
2023/09/20 22:51:16;;;;;;;5.70;4.55;;;23.50;99.90;;;;;;6233475;28;89244;-69
2023/09/20 22:54:21;;;;;;;5.22;4.50;;;23.50;99.90;;;;;;6214749;28;89091;-69
2023/09/20 22:57:24;;;;;;;5.32;4.72;;;23.50;99.90;;;;;;6224959;28;89955;-69
2023/09/20 23:00:29;;;;;;;5.57;4.78;;;23.50;99.90;;;;;;6213324;28;89456;-69
2023/09/20 23:03:31;;;;;;;5.75;4.57;;;23.50;99.90;;;;;;6232771;28;89049;-69
2023/09/20 23:06:33;;;;;;;8.18;5.15;;;23.40;99.90;;;;;;6231275;28;89098;-69
2023/09/20 23:09:40;;;;;;;5.57;4.60;;;23.50;99.90;;;;;;6233085;28;89479;-69
2023/09/20 23:12:42;;;;;;;5.07;4.50;;;23.50;99.90;;;;;;6225792;28;89000;-69